createdAt,value
2019-05-14T00:00:32.150Z,79.80
2019-05-14T00:03:02.317Z,80.00
2019-05-14T00:05:32.779Z,80.20
2019-05-14T00:08:02.404Z,80.60
2019-05-14T00:10:32.234Z,80.80
2019-05-14T00:13:01.773Z,81.30
2019-05-14T00:15:32.270Z,81.20
2019-05-14T00:18:01.721Z,81.80
2019-05-14T00:20:31.972Z,82.90
2019-05-14T00:23:01.603Z,83.10
2019-05-14T00:25:31.953Z,83.30
2019-05-14T00:28:02.013Z,82.90
2019-05-14T00:30:32.415Z,83.20
2019-05-14T00:33:02.257Z,83.30
2019-05-14T00:35:35.568Z,84.30
2019-05-14T00:38:03.415Z,84.30
2019-05-14T00:40:32.749Z,84.80
2019-05-14T00:43:02.835Z,85.80
2019-05-14T00:45:33.196Z,85.40
2019-05-14T00:48:03.211Z,85.00
2019-05-14T00:50:33.418Z,86.00
2019-05-14T00:53:03.706Z,86.20
2019-05-14T00:55:33.765Z,87.60
2019-05-14T00:58:03.774Z,88.40
2019-05-14T01:00:34.038Z,89.00
2019-05-14T01:03:04.094Z,88.90
2019-05-14T01:05:34.331Z,89.30
2019-05-14T01:08:04.446Z,89.30
2019-05-14T01:10:34.693Z,89.90
2019-05-14T01:13:04.756Z,90.00
2019-05-14T01:15:34.955Z,90.30
2019-05-14T01:18:04.950Z,90.80
2019-05-14T01:20:35.162Z,90.60
2019-05-14T01:23:05.505Z,90.60
2019-05-14T01:25:35.394Z,90.70
2019-05-14T01:28:05.608Z,91.00
2019-05-14T01:30:35.802Z,91.20
2019-05-14T01:33:05.895Z,91.40
2019-05-14T01:35:36.091Z,91.00
2019-05-14T01:38:06.203Z,91.30
2019-05-14T01:40:36.495Z,91.30
2019-05-14T01:43:06.503Z,91.60
2019-05-14T01:45:36.715Z,91.70
2019-05-14T01:48:06.929Z,91.90
2019-05-14T01:50:37.161Z,92.20
2019-05-14T01:53:07.363Z,92.20
2019-05-14T01:55:37.458Z,92.50
2019-05-14T01:58:07.656Z,92.60
2019-05-14T02:00:37.853Z,92.40
2019-05-14T02:03:08.063Z,92.70
2019-05-14T02:05:38.259Z,92.70
2019-05-14T02:08:08.374Z,93.00
2019-05-14T02:10:38.454Z,93.40
2019-05-14T02:13:08.548Z,93.00
2019-05-14T02:15:40.598Z,93.20
2019-05-14T02:18:11.123Z,93.20
2019-05-14T02:20:41.458Z,93.40
2019-05-14T02:23:11.972Z,93.50
2019-05-14T02:25:41.455Z,93.60
2019-05-14T02:28:11.564Z,93.80
2019-05-14T02:30:51.776Z,93.80
2019-05-14T02:33:14.030Z,94.00
2019-05-14T02:35:43.315Z,94.10
2019-05-14T02:38:12.610Z,94.00
2019-05-14T02:40:41.900Z,94.10
2019-05-14T02:43:11.213Z,94.30
2019-05-14T02:45:58.711Z,94.70
2019-05-14T02:48:12.023Z,94.60
2019-05-14T02:50:41.316Z,94.90
2019-05-14T02:53:11.171Z,95.00
2019-05-14T02:55:41.392Z,95.10
2019-05-14T02:58:11.590Z,95.10
2019-05-14T03:00:41.620Z,95.30
2019-05-14T03:03:11.823Z,95.40
2019-05-14T03:05:42.029Z,95.70
2019-05-14T03:08:12.069Z,95.90
2019-05-14T03:10:42.262Z,96.50
2019-05-14T03:13:12.466Z,96.10
2019-05-14T03:15:42.838Z,96.10
2019-05-14T03:18:12.703Z,96.10
2019-05-14T03:20:42.915Z,96.20
2019-05-14T03:23:18.469Z,96.10
2019-05-14T03:25:44.231Z,96.20
2019-05-14T03:28:13.528Z,96.10
2019-05-14T03:30:44.073Z,96.20
2019-05-14T03:33:14.135Z,96.20
2019-05-14T03:35:56.304Z,96.80
2019-05-14T03:38:14.951Z,96.40
2019-05-14T03:40:44.233Z,96.40
2019-05-14T03:43:14.257Z,96.40
2019-05-14T03:45:44.471Z,96.40
2019-05-14T03:48:14.504Z,96.50
2019-05-14T03:50:44.751Z,96.70
2019-05-14T03:53:14.755Z,96.80
2019-05-14T03:55:45.180Z,96.80
2019-05-14T03:58:15.325Z,96.90
2019-05-14T04:00:51.000Z,96.80
2019-05-14T04:03:21.239Z,96.80
2019-05-14T04:05:50.946Z,96.80
2019-05-14T04:08:21.507Z,96.90
2019-05-14T04:10:54.080Z,97.30
2019-05-14T04:13:23.349Z,97.50
2019-05-14T04:15:59.794Z,97.60
2019-05-14T04:18:29.325Z,98.00
2019-05-14T04:20:59.619Z,97.60
2019-05-14T04:23:30.452Z,97.50
2019-05-14T04:26:03.362Z,97.50
2019-05-14T04:28:38.997Z,98.00
2019-05-14T04:31:09.486Z,98.00
2019-05-14T04:33:41.092Z,98.00
2019-05-14T04:36:10.754Z,98.30
2019-05-14T04:38:41.154Z,98.20
2019-05-14T04:41:11.654Z,98.20
2019-05-14T04:43:42.450Z,98.30
2019-05-14T04:46:11.823Z,98.50
2019-05-14T04:48:43.896Z,98.60
2019-05-14T04:51:13.305Z,98.30
2019-05-14T04:53:42.641Z,98.40
2019-05-14T04:56:12.009Z,98.50
2019-05-14T04:58:41.937Z,98.80
2019-05-14T05:01:11.328Z,99.00
2019-05-14T05:03:40.680Z,99.10
2019-05-14T05:06:10.280Z,99.00
2019-05-14T05:08:40.092Z,98.60
2019-05-14T05:11:09.756Z,98.50
2019-05-14T05:13:39.897Z,98.40
2019-05-14T05:16:10.139Z,98.40
2019-05-14T05:18:40.249Z,98.40
2019-05-14T05:21:09.641Z,98.40
2019-05-14T05:23:40.062Z,98.20
2019-05-14T05:26:09.436Z,97.90
2019-05-14T05:28:39.354Z,97.20
2019-05-14T05:31:09.453Z,97.00
2019-05-14T05:33:38.827Z,97.40
2019-05-14T05:36:09.428Z,96.90
2019-05-14T05:38:39.574Z,97.20
2019-05-14T05:41:09.409Z,97.00
2019-05-14T05:43:39.521Z,96.60
2019-05-14T05:46:09.047Z,96.10
2019-05-14T05:48:39.007Z,96.40
2019-05-14T05:51:09.603Z,96.20
2019-05-14T05:53:39.527Z,96.00
2019-05-14T05:56:09.224Z,95.90
2019-05-14T05:58:39.796Z,95.60
2019-05-14T06:01:09.907Z,96.50
2019-05-14T06:03:39.566Z,95.60
2019-05-14T06:06:13.561Z,95.70
2019-05-14T06:08:42.905Z,95.80
2019-05-14T06:11:12.523Z,95.80
2019-05-14T06:13:41.890Z,95.90
2019-05-14T06:16:11.217Z,95.50
2019-05-14T06:18:40.603Z,95.10
2019-05-14T06:21:10.145Z,94.90
2019-05-14T06:23:40.524Z,94.90
2019-05-14T06:26:11.416Z,94.80
2019-05-14T06:28:41.096Z,93.70
2019-05-14T06:31:10.590Z,94.20
2019-05-14T06:33:39.904Z,93.10
2019-05-14T06:36:09.188Z,93.20
2019-05-14T06:38:39.004Z,92.70
2019-05-14T06:41:08.649Z,92.40
2019-05-14T06:43:39.266Z,91.80
2019-05-14T06:46:09.101Z,91.90
2019-05-14T06:48:39.717Z,91.90
2019-05-14T06:51:09.286Z,91.20
2019-05-14T06:53:39.235Z,91.30
2019-05-14T06:56:08.862Z,91.60
2019-05-14T06:58:38.992Z,90.70
2019-05-14T07:01:09.665Z,90.30
2019-05-14T07:03:39.212Z,89.50
2019-05-14T07:06:09.119Z,88.20
2019-05-14T07:08:39.262Z,86.80
2019-05-14T07:11:08.842Z,85.40
2019-05-14T07:13:38.689Z,86.10
2019-05-14T07:16:09.075Z,87.00
2019-05-14T07:18:50.613Z,85.50
2019-05-14T07:21:09.630Z,85.20
2019-05-14T07:23:38.918Z,86.00
2019-05-14T07:26:08.627Z,85.60
2019-05-14T07:28:42.055Z,82.50
2019-05-14T07:31:10.027Z,78.30
2019-05-14T07:33:39.373Z,79.30
2019-05-14T07:36:09.041Z,79.20
2019-05-14T07:38:39.255Z,78.20
2019-05-14T07:41:09.443Z,76.50
2019-05-14T07:43:39.810Z,77.00
2019-05-14T07:46:09.105Z,78.90
2019-05-14T07:48:39.305Z,76.40
2019-05-14T07:51:09.182Z,75.50
2019-05-14T07:53:42.201Z,77.20
2019-05-14T07:56:09.705Z,76.80
2019-05-14T07:58:39.046Z,77.60
2019-05-14T08:01:09.434Z,79.80
2019-05-14T08:03:38.956Z,81.70
2019-05-14T08:06:08.548Z,78.00
2019-05-14T08:08:38.482Z,79.60
2019-05-14T08:11:08.627Z,76.50
2019-05-14T08:13:39.033Z,75.80
2019-05-14T08:16:09.180Z,77.40
2019-05-14T08:18:39.667Z,76.70
2019-05-14T08:21:09.322Z,70.00
2019-05-14T08:23:39.313Z,71.00
2019-05-14T08:26:10.050Z,72.00
2019-05-14T08:28:39.384Z,74.80
2019-05-14T08:31:09.428Z,77.00
2019-05-14T08:33:39.718Z,71.80
2019-05-14T08:36:09.313Z,70.30
2019-05-14T08:38:38.611Z,70.80
2019-05-14T08:41:08.600Z,72.20
2019-05-14T08:43:39.714Z,73.70
2019-05-14T08:46:09.000Z,74.40
2019-05-14T08:48:39.058Z,73.10
2019-05-14T08:51:09.100Z,71.90
2019-05-14T08:53:39.665Z,73.10
2019-05-14T08:56:12.165Z,71.50
2019-05-14T08:58:40.025Z,72.60
2019-05-14T09:01:09.327Z,71.70
2019-05-14T09:03:39.361Z,71.70
2019-05-14T09:06:09.352Z,66.30
2019-05-14T09:08:39.363Z,65.80
2019-05-14T09:11:09.868Z,64.50
2019-05-14T09:13:39.999Z,65.10
2019-05-14T09:16:09.453Z,65.00
2019-05-14T09:18:39.886Z,62.20
2019-05-14T09:21:09.224Z,62.00
2019-05-14T09:23:39.372Z,57.10
2019-05-14T09:26:09.623Z,55.60
2019-05-14T09:28:43.134Z,59.10
2019-05-14T09:31:12.453Z,56.50
2019-05-14T09:33:41.727Z,56.70
2019-05-14T09:36:19.387Z,59.00
2019-05-14T09:38:42.698Z,56.20
2019-05-14T09:41:15.524Z,56.50
2019-05-14T09:43:44.268Z,55.20
2019-05-14T09:46:13.598Z,52.50
2019-05-14T09:48:42.970Z,51.60
2019-05-14T09:51:12.267Z,51.50
2019-05-14T09:53:41.575Z,48.40
2019-05-14T09:56:10.868Z,53.00
2019-05-14T09:58:40.221Z,51.00
2019-05-14T10:01:09.532Z,49.90
2019-05-14T10:03:39.304Z,49.60
2019-05-14T10:06:09.670Z,50.70
2019-05-14T10:08:42.512Z,53.20
2019-05-14T10:11:11.749Z,52.40
2019-05-14T10:13:41.055Z,51.70
2019-05-14T10:16:10.456Z,54.10
2019-05-14T10:18:39.743Z,50.50
2019-05-14T10:21:10.038Z,48.50
2019-05-14T10:23:39.415Z,47.70
2019-05-14T10:26:09.345Z,48.30
2019-05-14T10:28:43.226Z,48.00
2019-05-14T10:31:13.218Z,49.40
2019-05-14T10:33:41.429Z,47.40
2019-05-14T10:36:10.807Z,48.00
2019-05-14T10:38:40.236Z,46.90
2019-05-14T10:41:24.249Z,46.20
2019-05-14T10:43:53.556Z,45.40
2019-05-14T10:46:23.481Z,43.20
2019-05-14T10:48:53.031Z,46.90
2019-05-14T10:51:22.389Z,46.90
2019-05-14T10:53:51.745Z,50.00
2019-05-14T10:56:21.102Z,52.40
2019-05-14T10:58:51.290Z,50.10
2019-05-14T11:01:22.706Z,48.70
2019-05-14T11:03:52.288Z,47.00
2019-05-14T11:06:21.669Z,47.50
2019-05-14T11:08:50.969Z,44.10
2019-05-14T11:11:20.282Z,48.10
2019-05-14T11:13:49.595Z,43.60
2019-05-14T11:16:19.213Z,40.60
2019-05-14T11:18:50.153Z,41.70
2019-05-14T11:21:26.153Z,43.20
2019-05-14T11:23:50.536Z,41.90
2019-05-14T11:26:19.844Z,43.20
2019-05-14T11:28:49.423Z,42.60
2019-05-14T11:31:19.326Z,42.60
2019-05-14T11:33:49.920Z,45.70
2019-05-14T11:36:19.294Z,47.00
2019-05-14T11:38:50.841Z,46.50
2019-05-14T11:41:20.050Z,44.30
2019-05-14T11:43:49.666Z,44.30
2019-05-14T11:46:29.636Z,47.10
2019-05-14T11:48:51.064Z,42.60
2019-05-14T11:51:45.790Z,44.30
2019-05-14T11:53:51.387Z,45.20
2019-05-14T11:56:20.700Z,43.90
2019-05-14T11:58:49.999Z,44.60
2019-05-14T12:01:19.300Z,44.10
2019-05-14T12:03:50.338Z,48.00
2019-05-14T12:06:19.704Z,46.10
2019-05-14T12:08:49.133Z,45.60
2019-05-14T12:11:19.408Z,45.30
2019-05-14T12:13:49.041Z,44.00
2019-05-14T12:16:18.445Z,43.80
2019-05-14T12:18:48.336Z,43.00
2019-05-14T12:21:17.914Z,45.50
2019-05-14T12:23:47.254Z,42.90
2019-05-14T12:26:19.123Z,41.20
2019-05-14T12:28:49.402Z,41.80
2019-05-14T12:31:18.944Z,44.70
2019-05-14T12:33:48.842Z,45.10
2019-05-14T12:36:19.438Z,43.30
2019-05-14T12:38:48.980Z,42.70
2019-05-14T12:41:19.356Z,45.50
2019-05-14T12:43:48.268Z,44.60
2019-05-14T12:46:20.046Z,46.20
2019-05-14T12:48:49.624Z,44.90
2019-05-14T12:51:19.274Z,45.60
2019-05-14T12:53:48.919Z,44.20
2019-05-14T12:56:19.013Z,42.70
2019-05-14T12:58:49.612Z,42.10
2019-05-14T13:01:20.086Z,41.60
2019-05-14T13:03:49.601Z,43.60
2019-05-14T13:06:19.359Z,40.50
2019-05-14T13:08:49.565Z,40.70
2019-05-14T13:11:19.841Z,43.40
2019-05-14T13:13:49.674Z,42.80
2019-05-14T13:16:19.892Z,44.30
2019-05-14T13:18:50.434Z,45.50
2019-05-14T13:21:20.206Z,45.90
2019-05-14T13:23:50.420Z,45.80
2019-05-14T13:26:20.507Z,41.10
2019-05-14T13:28:55.426Z,41.80
2019-05-14T13:31:24.795Z,44.00
2019-05-14T13:33:54.238Z,41.00
2019-05-14T13:36:23.567Z,41.00
2019-05-14T13:38:52.853Z,41.20
2019-05-14T13:41:22.193Z,42.20
2019-05-14T13:43:51.532Z,42.50
2019-05-14T13:46:21.799Z,43.90
2019-05-14T13:48:51.921Z,40.40
2019-05-14T13:51:22.115Z,40.60
2019-05-14T13:53:52.227Z,40.00
2019-05-14T13:56:22.475Z,41.00
2019-05-14T13:58:52.701Z,39.40
2019-05-14T14:01:22.748Z,40.30
2019-05-14T14:04:06.234Z,40.50
2019-05-14T14:06:23.915Z,39.80
2019-05-14T14:08:53.211Z,38.80
2019-05-14T14:11:23.347Z,38.70
2019-05-14T14:13:53.457Z,38.90
2019-05-14T14:16:23.720Z,39.30
2019-05-14T14:18:54.158Z,39.10
2019-05-14T14:21:24.047Z,38.80
2019-05-14T14:23:54.096Z,37.40
2019-05-14T14:26:24.350Z,38.20
2019-05-14T14:28:59.944Z,40.40
2019-05-14T14:31:28.833Z,39.40
2019-05-14T14:33:58.153Z,37.90
2019-05-14T14:36:29.953Z,40.80
2019-05-14T14:39:01.564Z,44.70
2019-05-14T14:41:32.632Z,45.10
2019-05-14T14:44:01.928Z,46.20
2019-05-14T14:46:31.302Z,40.40
2019-05-14T14:49:04.021Z,43.00
2019-05-14T14:51:33.317Z,41.10
2019-05-14T14:54:10.708Z,43.30
2019-05-14T14:56:32.886Z,41.00
2019-05-14T14:59:02.113Z,41.00
2019-05-14T15:01:31.427Z,42.30
2019-05-14T15:04:00.726Z,41.60
2019-05-14T15:06:30.808Z,44.40
2019-05-14T15:09:00.256Z,44.40
2019-05-14T15:11:29.678Z,45.30
2019-05-14T15:13:58.993Z,45.50
2019-05-14T15:16:29.144Z,44.80
2019-05-14T15:18:59.791Z,46.90
2019-05-14T15:21:29.936Z,46.30
2019-05-14T15:24:09.806Z,45.40
2019-05-14T15:26:29.898Z,47.60
2019-05-14T15:28:59.100Z,46.20
2019-05-14T15:31:29.219Z,46.10
2019-05-14T15:33:59.427Z,46.10
2019-05-14T15:36:28.948Z,47.30
2019-05-14T15:38:59.248Z,45.80
2019-05-14T15:41:29.871Z,47.20
2019-05-14T15:43:59.522Z,47.60
2019-05-14T15:46:29.732Z,48.10
2019-05-14T15:49:03.328Z,49.40
2019-05-14T15:51:32.649Z,47.40
2019-05-14T15:54:15.926Z,48.40
2019-05-14T15:56:32.256Z,47.90
2019-05-14T15:59:01.625Z,48.00
2019-05-14T16:01:31.045Z,46.90
2019-05-14T16:04:01.023Z,48.40
2019-05-14T16:06:31.149Z,47.90
2019-05-14T16:09:01.318Z,49.10
2019-05-14T16:11:32.034Z,47.60
2019-05-14T16:14:01.560Z,48.40
2019-05-14T16:16:31.764Z,50.00
2019-05-14T16:19:03.877Z,46.00
2019-05-14T16:21:33.208Z,48.10
2019-05-14T16:24:02.545Z,48.60
2019-05-14T16:26:32.331Z,50.60
2019-05-14T16:29:02.473Z,48.90
2019-05-14T16:31:32.694Z,50.40
2019-05-14T16:34:02.970Z,49.20
2019-05-14T16:36:32.919Z,50.30
2019-05-14T16:39:03.797Z,50.10
2019-05-14T16:41:33.679Z,48.10
2019-05-14T16:44:04.024Z,46.90
2019-05-14T16:46:33.540Z,48.50
2019-05-14T16:49:03.767Z,47.70
2019-05-14T16:51:34.020Z,48.00
2019-05-14T16:54:04.177Z,49.90
2019-05-14T16:56:34.207Z,50.50
2019-05-14T16:59:04.439Z,48.80
2019-05-14T17:01:34.516Z,48.40
2019-05-14T17:04:04.787Z,46.80
2019-05-14T17:06:35.008Z,47.00
2019-05-14T17:09:08.611Z,47.40
2019-05-14T17:11:39.062Z,46.50
2019-05-14T17:14:08.671Z,48.30
2019-05-14T17:16:38.188Z,47.00
2019-05-14T17:19:09.248Z,48.60
2019-05-14T17:21:39.126Z,47.00
2019-05-14T17:24:08.793Z,48.30
2019-05-14T17:26:38.279Z,47.70
2019-05-14T17:29:16.272Z,48.20
2019-05-14T17:31:45.567Z,47.30
2019-05-14T17:34:14.982Z,47.80
2019-05-14T17:36:44.309Z,47.60
2019-05-14T17:39:13.653Z,47.80
2019-05-14T17:41:42.938Z,47.90
2019-05-14T17:44:12.230Z,49.10
2019-05-14T17:46:41.511Z,48.80
2019-05-14T17:49:10.931Z,50.70
2019-05-14T17:51:40.332Z,52.40
2019-05-14T17:54:09.769Z,49.70
2019-05-14T17:56:39.141Z,50.70
2019-05-14T17:59:08.648Z,50.90
2019-05-14T18:01:39.257Z,51.50
2019-05-14T18:04:09.155Z,51.60
2019-05-14T18:06:38.693Z,52.80
2019-05-14T18:09:09.202Z,52.60
2019-05-14T18:11:40.074Z,51.50
2019-05-14T18:14:11.977Z,52.50
2019-05-14T18:16:40.735Z,53.50
2019-05-14T18:19:10.076Z,52.30
2019-05-14T18:21:39.436Z,51.40
2019-05-14T18:24:09.044Z,51.80
2019-05-14T18:26:39.118Z,52.50
2019-05-14T18:29:09.218Z,54.00
2019-05-14T18:31:44.349Z,53.40
2019-05-14T18:34:10.163Z,54.30
2019-05-14T18:36:39.722Z,54.60
2019-05-14T18:39:09.492Z,55.20
2019-05-14T18:41:39.447Z,55.50
2019-05-14T18:44:09.338Z,55.80
2019-05-14T18:46:39.550Z,55.20
2019-05-14T18:49:09.525Z,55.60
2019-05-14T18:51:39.417Z,56.10
2019-05-14T18:54:09.415Z,58.20
2019-05-14T18:56:39.437Z,58.50
2019-05-14T18:59:09.471Z,57.50
2019-05-14T19:01:39.868Z,59.40
2019-05-14T19:04:09.487Z,59.50
2019-05-14T19:06:39.553Z,60.40
2019-05-14T19:09:10.711Z,60.40
2019-05-14T19:11:40.267Z,61.10
2019-05-14T19:14:09.666Z,61.80
2019-05-14T19:16:40.273Z,62.10
2019-05-14T19:19:09.797Z,63.20
2019-05-14T19:21:39.830Z,64.20
2019-05-14T19:24:09.782Z,64.90
2019-05-14T19:26:40.573Z,64.80
2019-05-14T19:29:09.948Z,65.90
2019-05-14T19:31:39.907Z,65.50
2019-05-14T19:34:09.931Z,66.00
2019-05-14T19:36:40.127Z,66.50
2019-05-14T19:39:10.065Z,67.60
2019-05-14T19:41:40.013Z,68.40
2019-05-14T19:44:10.097Z,68.40
2019-05-14T19:46:41.067Z,68.70
2019-05-14T19:49:10.401Z,70.80
2019-05-14T19:51:40.192Z,69.20
2019-05-14T19:54:10.194Z,70.90
2019-05-14T19:56:52.013Z,72.70
2019-05-14T19:59:11.330Z,72.00
2019-05-14T20:01:40.680Z,72.60
2019-05-14T20:04:10.362Z,70.50
2019-05-14T20:06:40.438Z,76.20
2019-05-14T20:09:10.393Z,73.10
2019-05-14T20:11:40.467Z,73.60
2019-05-14T20:14:10.426Z,76.00
2019-05-14T20:16:40.680Z,74.60
2019-05-14T20:19:10.495Z,75.50
2019-05-14T20:21:40.506Z,76.90
2019-05-14T20:24:10.510Z,76.80
2019-05-14T20:26:40.593Z,76.00
2019-05-14T20:29:10.565Z,78.90
2019-05-14T20:31:40.562Z,79.80
2019-05-14T20:34:10.629Z,80.50
2019-05-14T20:36:40.864Z,81.80
2019-05-14T20:39:10.656Z,81.90
2019-05-14T20:41:40.711Z,82.70
2019-05-14T20:44:10.695Z,83.50
2019-05-14T20:46:40.748Z,80.60
2019-05-14T20:49:10.865Z,80.60
2019-05-14T20:51:40.865Z,82.30
2019-05-14T20:54:10.906Z,83.90
2019-05-14T20:56:40.907Z,85.60
2019-05-14T20:59:10.948Z,85.70
2019-05-14T21:01:40.984Z,87.00
2019-05-14T21:04:11.389Z,87.20
2019-05-14T21:06:41.014Z,86.20
2019-05-14T21:09:13.269Z,85.20
2019-05-14T21:11:42.657Z,85.20
2019-05-14T21:14:11.963Z,85.10
2019-05-14T21:16:41.302Z,87.50
2019-05-14T21:19:11.147Z,87.00
2019-05-14T21:21:41.240Z,86.70
2019-05-14T21:24:11.229Z,87.40
2019-05-14T21:26:41.271Z,87.70
2019-05-14T21:29:11.426Z,89.10
2019-05-14T21:31:41.325Z,89.70
2019-05-14T21:34:11.322Z,88.70
2019-05-14T21:36:42.983Z,89.90
2019-05-14T21:39:12.283Z,90.10
2019-05-14T21:41:41.682Z,90.10
2019-05-14T21:44:11.440Z,89.80
2019-05-14T21:46:41.456Z,90.80
2019-05-14T21:49:11.549Z,90.70
2019-05-14T21:51:41.585Z,91.10
2019-05-14T21:54:11.559Z,90.80
2019-05-14T21:56:41.586Z,91.40
2019-05-14T21:59:11.654Z,91.80
2019-05-14T22:01:41.746Z,91.90
2019-05-14T22:04:11.999Z,92.10
2019-05-14T22:06:41.955Z,93.00
2019-05-14T22:09:11.844Z,92.50
2019-05-14T22:11:41.837Z,93.10
2019-05-14T22:14:11.894Z,92.40
2019-05-14T22:16:41.229Z,92.80
2019-05-14T22:19:11.938Z,93.20
2019-05-14T22:21:42.090Z,93.60
2019-05-14T22:24:11.950Z,93.10
2019-05-14T22:26:42.075Z,93.70
2019-05-14T22:29:12.048Z,94.00
2019-05-14T22:31:42.120Z,94.20
2019-05-14T22:34:12.047Z,93.70
2019-05-14T22:36:42.147Z,93.40
2019-05-14T22:39:12.121Z,93.70
2019-05-14T22:41:42.179Z,93.70
2019-05-14T22:44:12.204Z,93.90
2019-05-14T22:46:42.250Z,93.90
2019-05-14T22:49:12.295Z,94.10
2019-05-14T22:51:42.323Z,94.50
2019-05-14T22:54:12.346Z,94.70
2019-05-14T22:56:42.375Z,94.40
2019-05-14T22:59:12.371Z,94.50
2019-05-14T23:01:42.375Z,94.90
2019-05-14T23:04:12.415Z,94.50
2019-05-14T23:06:42.461Z,94.60
2019-05-14T23:09:12.438Z,94.50
2019-05-14T23:11:42.457Z,94.80
2019-05-14T23:14:12.519Z,95.10
2019-05-14T23:16:42.491Z,95.10
2019-05-14T23:19:12.503Z,94.90
2019-05-14T23:21:42.503Z,94.90
2019-05-14T23:24:12.583Z,95.20
2019-05-14T23:26:42.558Z,95.60
2019-05-14T23:29:12.588Z,95.30
2019-05-14T23:31:42.627Z,94.90
2019-05-14T23:34:12.642Z,95.10
2019-05-14T23:36:42.648Z,95.10
2019-05-14T23:39:12.834Z,95.30
2019-05-14T23:41:42.850Z,95.60
2019-05-14T23:44:12.743Z,95.80
2019-05-14T23:46:42.810Z,95.40
2019-05-14T23:49:12.875Z,95.60
2019-05-14T23:51:42.765Z,95.70
2019-05-14T23:54:12.879Z,95.70
2019-05-14T23:56:42.810Z,96.20
2019-05-14T23:59:12.824Z,95.70
